Time;durP1;ratioP1;P1;durP2;ratioP2;P2;SDS_P1;SDS_P2;PMS_P1;PMS_P2;Temp;Humidity;BMP_temperature;BMP_pressure;BME280_temperature;BME280_humidity;BME280_pressure;Samples;Min_cycle;Max_cycle;Signal;HPM_P1;HPM_P2
2022/02/06 00:03:14;;;;;;;;;;;7.30;99.90;;;;;;8389488;28;19934;-73
2022/02/06 00:07:15;;;;;;;;;;;7.30;99.90;;;;;;8392683;28;19936;-73
2022/02/06 00:11:17;;;;;;;;;;;7.30;99.90;;;;;;8369569;28;19931;-73
2022/02/06 00:15:20;;;;;;;;;;;7.30;99.90;;;;;;8381637;28;20122;-73
2022/02/06 00:19:23;;;;;;;;;;;7.30;99.90;;;;;;8390024;28;19929;-73
2022/02/06 00:23:27;;;;;;;;;;;7.30;99.90;;;;;;8382212;28;20027;-73
2022/02/06 00:27:40;;;;;;;;;;;7.30;99.90;;;;;;8364280;28;19931;-73
2022/02/06 00:31:54;;;;;;;;;;;7.30;99.90;;;;;;8392611;28;19924;-73
2022/02/06 00:36:04;;;;;;;;;;;7.30;99.90;;;;;;8362232;28;19959;-72
2022/02/06 00:40:06;;;;;;;;;;;7.30;99.90;;;;;;8366735;28;19940;-73
2022/02/06 00:44:09;;;;;;;;;;;7.30;99.90;;;;;;8398589;28;19960;-73
2022/02/06 00:48:11;;;;;;;;;;;7.40;99.90;;;;;;8377499;28;19925;-73
2022/02/06 00:52:21;;;;;;;;;;;7.40;99.90;;;;;;8377083;28;19998;-73
2022/02/06 00:56:22;;;;;;;;;;;7.40;99.90;;;;;;8372549;28;19970;-73
2022/02/06 01:00:24;;;;;;;;;;;7.40;99.90;;;;;;8393551;28;19979;-73
2022/02/06 01:04:28;;;;;;;;;;;7.40;99.90;;;;;;8393141;28;20008;-73
2022/02/06 01:08:29;;;;;;;;;;;7.40;99.90;;;;;;8399694;28;19948;-73
2022/02/06 01:12:33;;;;;;;;;;;7.40;99.90;;;;;;8401397;28;20015;-73
2022/02/06 01:16:40;;;;;;;;;;;7.40;99.90;;;;;;8379295;28;19964;-73
2022/02/06 01:20:46;;;;;;;;;;;7.40;99.90;;;;;;8383145;28;19964;-73
2022/02/06 01:33:42;;;;;;;;;;;7.40;99.90;;;;;;8387595;28;19925;-73
2022/02/06 01:38:00;;;;;;;;;;;7.50;99.90;;;;;;8386736;28;19924;-73
2022/02/06 01:42:07;;;;;;;;;;;7.50;99.90;;;;;;8371070;28;20011;-73
2022/02/06 01:46:27;;;;;;;;;;;7.50;99.90;;;;;;8375118;28;19947;-73
2022/02/06 02:03:55;;;;;;;;;;;7.70;99.90;;;;;;8390793;28;19924;-73
2022/02/06 02:46:25;;;;;;;;;;;7.80;99.90;;;;;;8386467;28;19924;-73
2022/02/06 02:50:27;;;;;;;;;;;7.80;99.90;;;;;;8394163;28;19928;-73
2022/02/06 02:54:32;;;;;;;;;;;7.80;99.90;;;;;;8392329;28;21308;-73
2022/02/06 03:02:38;;;;;;;;;;;7.90;99.90;;;;;;8390518;28;19928;-73
2022/02/06 03:06:40;;;;;;;;;;;7.90;99.90;;;;;;8398226;28;19967;-73
2022/02/06 03:10:43;;;;;;;;;;;7.90;99.90;;;;;;8391769;28;20053;-73
2022/02/06 03:14:51;;;;;;;;;;;8.00;99.90;;;;;;8383616;28;20287;-73
2022/02/06 03:19:02;;;;;;;;;;;8.00;99.90;;;;;;8387962;28;19928;-73
2022/02/06 03:23:05;;;;;;;;;;;8.00;99.90;;;;;;8369230;28;20019;-73
2022/02/06 03:27:07;;;;;;;;;;;8.00;99.90;;;;;;8385707;28;19982;-73
2022/02/06 03:31:08;;;;;;;;;;;8.00;99.90;;;;;;8388768;28;20288;-73
2022/02/06 03:35:10;;;;;;;;;;;8.10;99.90;;;;;;8380258;28;20043;-74
2022/02/06 03:39:12;;;;;;;;;;;8.00;99.90;;;;;;8387896;28;19924;-73
2022/02/06 03:43:21;;;;;;;;;;;8.10;99.90;;;;;;8389162;28;20015;-73
2022/02/06 03:47:25;;;;;;;;;;;8.10;99.90;;;;;;8391853;28;19924;-73
2022/02/06 03:51:33;;;;;;;;;;;8.10;99.90;;;;;;8386782;28;20016;-73
2022/02/06 03:55:35;;;;;;;19.17;3.17;;;8.10;99.90;;;;;;8387207;28;20332;-73
2022/02/06 03:59:37;;;;;;;;;;;8.10;99.90;;;;;;8369504;28;19979;-73
2022/02/06 04:03:38;;;;;;;;;;;8.10;99.90;;;;;;8363697;28;19966;-73
2022/02/06 04:07:41;;;;;;;;;;;8.10;99.90;;;;;;8376348;28;19926;-73
2022/02/06 04:12:03;;;;;;;;;;;8.10;99.90;;;;;;8390393;28;19951;-73
2022/02/06 04:16:11;;;;;;;;;;;8.10;99.90;;;;;;8367217;28;19927;-73
2022/02/06 04:20:13;;;;;;;;;;;8.10;99.90;;;;;;8387173;28;19974;-73
2022/02/06 04:24:15;;;;;;;;;;;8.10;99.90;;;;;;8388478;28;19927;-73
2022/02/06 04:28:17;;;;;;;;;;;8.20;99.90;;;;;;8387427;28;20282;-73
2022/02/06 04:32:19;;;;;;;;;;;8.20;99.90;;;;;;8367455;28;19932;-73
2022/02/06 04:36:23;;;;;;;;;;;8.20;99.90;;;;;;8386935;28;19952;-73
2022/02/06 04:40:43;;;;;;;;;;;8.20;99.90;;;;;;8367179;28;20267;-73
2022/02/06 05:35:36;;;;;;;;;;;8.40;99.90;;;;;;8388072;28;19920;-72
2022/02/06 05:39:38;;;;;;;;;;;8.50;99.90;;;;;;8378740;28;19983;-72
2022/02/06 05:43:39;;;;;;;;;;;8.50;99.90;;;;;;8385539;28;20031;-72
2022/02/06 05:47:41;;;;;;;;;;;8.50;99.90;;;;;;8365965;28;19977;-72
2022/02/06 05:51:44;;;;;;;;;;;8.60;99.90;;;;;;8369339;28;20348;-72
2022/02/06 05:55:46;;;;;;;;;;;8.60;99.90;;;;;;8368361;28;19920;-72
2022/02/06 05:59:47;;;;;;;;;;;8.60;99.90;;;;;;8383614;28;20451;-72
2022/02/06 06:03:50;;;;;;;;;;;8.50;99.90;;;;;;8380735;28;19943;-72
2022/02/06 06:07:52;;;;;;;;;;;8.50;99.90;;;;;;8387725;28;19967;-73
2022/02/06 06:11:53;;;;;;;;;;;8.50;99.90;;;;;;8386143;28;19999;-73
2022/02/06 06:15:56;;;;;;;;;;;8.40;99.90;;;;;;8385304;28;19940;-73
2022/02/06 06:19:57;;;;;;;;;;;8.40;99.90;;;;;;8386693;28;19951;-73
2022/02/06 06:24:00;;;;;;;;;;;8.40;99.90;;;;;;8384099;28;19960;-73
2022/02/06 06:28:01;;;;;;;;;;;8.40;99.90;;;;;;8369104;28;19927;-73
2022/02/06 06:32:04;;;;;;;;;;;8.40;99.90;;;;;;8384814;28;19971;-73
2022/02/06 06:36:07;;;;;;;;;;;8.40;99.90;;;;;;8385483;28;19983;-73
2022/02/06 06:40:08;;;;;;;;;;;8.40;99.90;;;;;;8391637;28;20018;-73
2022/02/06 06:44:10;;;;;;;;;;;8.40;99.90;;;;;;8369670;28;19967;-73
2022/02/06 06:48:12;;;;;;;;;;;8.40;99.90;;;;;;8394395;28;19963;-73
2022/02/06 06:52:13;;;;;;;;;;;8.40;99.90;;;;;;8398619;28;20007;-73
2022/02/06 06:56:28;;;;;;;;;;;8.30;99.90;;;;;;8376378;28;20876;-73
2022/02/06 07:04:53;;;;;;;;;;;8.40;99.90;;;;;;8384364;28;21604;-73
2022/02/06 07:08:54;;;;;;;;;;;8.40;99.90;;;;;;8371665;28;19960;-74
2022/02/06 07:12:56;;;;;;;;;;;8.40;99.90;;;;;;8389287;28;20375;-74
2022/02/06 07:16:58;;;;;;;;;;;8.40;99.90;;;;;;8391665;28;19970;-73
2022/02/06 07:21:00;;;;;;;;;;;8.40;99.90;;;;;;8389352;28;19952;-74
2022/02/06 07:25:03;;;;;;;;;;;8.40;99.90;;;;;;8374401;28;20390;-74
2022/02/06 07:29:04;;;;;;;;;;;8.40;99.90;;;;;;8386469;28;20011;-74
2022/02/06 07:33:06;;;;;;;;;;;8.40;99.90;;;;;;8391575;28;19931;-74
2022/02/06 07:37:07;;;;;;;;;;;8.40;99.90;;;;;;8371158;28;19935;-74
2022/02/06 07:41:09;;;;;;;;;;;8.40;99.90;;;;;;8378511;28;20310;-74
2022/02/06 07:45:12;;;;;;;;;;;8.40;99.90;;;;;;8387874;28;19927;-74
2022/02/06 07:49:15;;;;;;;;;;;8.40;99.90;;;;;;8373546;28;19920;-74
2022/02/06 07:53:18;;;;;;;;;;;8.40;99.90;;;;;;8392349;28;19947;-74
2022/02/06 07:57:20;;;;;;;;;;;8.40;99.90;;;;;;8374752;28;19956;-74
2022/02/06 08:01:21;;;;;;;;;;;8.40;99.90;;;;;;8392386;28;19920;-74
2022/02/06 08:05:25;;;;;;;;;;;8.40;99.90;;;;;;8384208;28;20427;-75
2022/02/06 08:13:56;;;;;;;;;;;8.50;99.90;;;;;;8391456;28;19974;-75
2022/02/06 08:17:58;;;;;;;;;;;8.50;99.90;;;;;;8385948;28;20366;-75
2022/02/06 08:22:00;;;;;;;;;;;8.50;99.90;;;;;;8374929;28;20365;-75
2022/02/06 08:26:02;;;;;;;;;;;8.50;99.90;;;;;;8374129;28;19959;-75
2022/02/06 08:30:04;;;;;;;;;;;8.50;99.90;;;;;;8386115;28;20006;-75
2022/02/06 08:34:06;;;;;;;;;;;8.50;99.90;;;;;;8390179;28;19926;-75
2022/02/06 08:38:10;;;;;;;;;;;8.50;99.90;;;;;;8374537;28;19951;-75
2022/02/06 08:42:12;;;;;;;;;;;8.40;99.90;;;;;;8392895;28;19959;-75
2022/02/06 08:46:14;;;;;;;;;;;8.40;99.90;;;;;;8387136;28;20014;-75
2022/02/06 08:50:15;;;;;;;;;;;8.50;99.90;;;;;;8359931;28;20838;-76
2022/02/06 08:54:24;;;;;;;;;;;8.40;99.90;;;;;;8383688;28;19928;-75
2022/02/06 08:58:41;;;;;;;;;;;8.40;99.90;;;;;;8374270;28;20322;-75
2022/02/06 09:02:43;;;;;;;;;;;8.40;99.90;;;;;;8381790;28;19924;-75
2022/02/06 09:06:44;;;;;;;;;;;8.40;99.90;;;;;;8370953;28;19920;-75
2022/02/06 09:10:47;;;;;;;;;;;8.40;99.90;;;;;;8382722;28;19924;-76
2022/02/06 09:14:49;;;;;;;;;;;8.40;99.90;;;;;;8367746;28;19928;-76
2022/02/06 09:18:51;;;;;;;;;;;8.40;99.90;;;;;;8384897;28;19952;-76
2022/02/06 09:22:52;;;;;;;;;;;8.40;99.90;;;;;;8373606;28;20109;-76
2022/02/06 09:26:55;;;;;;;;;;;8.40;99.90;;;;;;8380198;28;20015;-76
2022/02/06 09:30:57;;;;;;;;;;;8.40;99.90;;;;;;8389265;28;20006;-76
2022/02/06 09:39:03;;;;;;;;;;;8.40;99.90;;;;;;8387808;28;20215;-76
2022/02/06 09:43:05;;;;;;;;;;;8.40;99.90;;;;;;8383137;28;20387;-75
2022/02/06 09:47:07;;;;;;;;;;;8.40;99.90;;;;;;8379570;28;19964;-75
2022/02/06 09:51:09;;;;;;;;;;;8.40;99.90;;;;;;8366470;28;19985;-75
2022/02/06 09:55:17;;;;;;;;;;;8.40;99.90;;;;;;8383217;28;19970;-75
2022/02/06 09:59:22;;;;;;;;;;;8.40;99.90;;;;;;8384210;28;20011;-75
2022/02/06 10:03:24;;;;;;;;;;;8.40;99.90;;;;;;8377213;28;19971;-76
2022/02/06 10:07:28;;;;;;;;;;;8.40;99.90;;;;;;8364762;28;20360;-76
2022/02/06 10:11:31;;;;;;;;;;;8.40;99.90;;;;;;8397208;28;19920;-76
2022/02/06 10:15:33;;;;;;;;;;;8.40;99.90;;;;;;8373727;28;20369;-76
2022/02/06 10:19:37;;;;;;;;;;;8.40;99.90;;;;;;8383707;28;19924;-76
2022/02/06 10:23:46;;;;;;;;;;;8.40;99.90;;;;;;8385633;28;19960;-76
2022/02/06 10:28:21;;;;;;;;;;;8.40;99.90;;;;;;8393038;28;19927;-75
2022/02/06 10:32:23;;;;;;;;;;;8.40;99.90;;;;;;8393084;28;19931;-75
2022/02/06 10:36:35;;;;;;;;;;;8.40;99.90;;;;;;8370359;28;20000;-76
2022/02/06 10:40:37;;;;;;;;;;;8.40;99.90;;;;;;8371184;28;19920;-75
2022/02/06 10:44:38;;;;;;;;;;;8.40;99.90;;;;;;8390699;28;20360;-75
2022/02/06 10:48:44;;;;;;;;;;;8.40;99.90;;;;;;8393267;28;19956;-75
2022/02/06 10:52:46;;;;;;;;;;;8.40;99.90;;;;;;8373356;28;19920;-75
2022/02/06 10:57:06;;;;;;;;;;;8.50;99.90;;;;;;8387805;28;19963;-75
2022/02/06 11:01:20;;;;;;;;;;;8.50;99.90;;;;;;8393819;28;19956;-75
2022/02/06 11:05:30;;;;;;;;;;;8.50;99.90;;;;;;8390192;28;20031;-75
2022/02/06 11:09:32;;;;;;;;;;;8.60;99.90;;;;;;8391521;28;20401;-75
2022/02/06 11:13:34;;;;;;;;;;;8.60;99.90;;;;;;8388753;28;20332;-75
2022/02/06 11:17:37;;;;;;;;;;;8.70;99.90;;;;;;8369153;28;19920;-74
2022/02/06 11:22:08;;;;;;;;;;;8.70;99.90;;;;;;8387909;28;19921;-74
2022/02/06 11:26:12;;;;;;;7.70;1.70;;;8.70;99.90;;;;;;8390493;28;20442;-75
2022/02/06 11:30:14;;;;;;;;;;;8.70;99.90;;;;;;8381867;28;20019;-75
2022/02/06 11:34:19;;;;;;;;;;;8.30;99.90;;;;;;8389098;28;20256;-75
2022/02/06 11:47:27;;;;;;;;;;;6.80;99.90;;;;;;8387861;28;19960;-74
2022/02/06 11:51:29;;;;;;;;;;;6.60;99.90;;;;;;8374666;28;19971;-74
2022/02/06 11:55:36;;;;;;;;;;;6.50;99.90;;;;;;8394086;28;19924;-74
2022/02/06 11:59:38;;;;;;;;;;;6.40;99.90;;;;;;8385170;28;19960;-73
2022/02/06 12:03:54;;;;;;;;;;;6.40;99.90;;;;;;8386911;28;20018;-73
2022/02/06 12:08:04;;;;;;;;;;;6.40;99.90;;;;;;8386303;28;19944;-73
2022/02/06 12:12:09;;;;;;;;;;;6.40;99.90;;;;;;8389641;28;20463;-74
2022/02/06 12:16:18;;;;;;;;;;;6.40;99.90;;;;;;8390983;28;19975;-74
2022/02/06 12:20:19;;;;;;;;;;;6.50;99.90;;;;;;8388622;28;20472;-73
2022/02/06 12:24:43;;;;;;;;;;;6.60;99.90;;;;;;8375341;28;19924;-74
2022/02/06 12:28:47;;;;;;;;;;;6.70;99.90;;;;;;8389856;28;19975;-74
2022/02/06 12:32:49;;;;;;;;;;;6.80;99.90;;;;;;8385239;28;20008;-74
2022/02/06 12:40:57;;;;;;;;;;;6.90;99.90;;;;;;8391156;28;19920;-73
2022/02/06 12:45:00;;;;;;;;;;;6.90;99.90;;;;;;8383767;28;19924;-74
2022/02/06 12:49:03;;;;;;;;;;;7.00;99.90;;;;;;8384580;28;20436;-73
2022/02/06 12:53:05;;;;;;;;;;;7.00;99.90;;;;;;8377470;28;19938;-73
2022/02/06 12:57:08;;;;;;;;;;;7.00;99.90;;;;;;8385801;28;19952;-73
2022/02/06 13:01:10;;;;;;;;;;;7.00;99.90;;;;;;8379395;28;20346;-73
2022/02/06 13:05:14;;;;;;;;;;;7.10;99.90;;;;;;8387428;28;19925;-73
2022/02/06 13:09:20;;;;;;;;;;;7.10;99.90;;;;;;8389316;28;19939;-73
2022/02/06 13:13:27;;;;;;;;;;;7.10;99.90;;;;;;8377382;28;20380;-74
2022/02/06 13:26:32;;;;;;;;;;;7.20;99.90;;;;;;8381526;28;20015;-73
2022/02/06 13:31:35;;;;;;;;;;;7.30;99.90;;;;;;8359899;28;20284;-74
2022/02/06 13:35:05;;;;;;;;;;;7.40;99.90;;;;;;8367852;28;20031;-73
2022/02/06 13:39:14;;;;;;;;;;;7.60;99.90;;;;;;8384549;28;20287;-73
2022/02/06 13:43:25;;;;;;;;;;;7.70;99.90;;;;;;8380722;28;19967;-73
2022/02/06 13:47:27;;;;;;;;;;;7.70;99.90;;;;;;8375881;28;20365;-74
2022/02/06 13:51:32;;;;;;;;;;;7.70;99.90;;;;;;8379749;28;20334;-73
2022/02/06 13:55:47;;;;;;;;;;;7.70;99.90;;;;;;8386112;28;20371;-73
2022/02/06 13:59:48;;;;;;;;;;;7.70;99.90;;;;;;8381061;28;19924;-73
2022/02/06 14:03:52;;;;;;;;;;;7.70;99.90;;;;;;8374250;28;19983;-73
2022/02/06 14:08:01;;;;;;;;;;;7.80;99.90;;;;;;8381405;28;19920;-74
2022/02/06 14:12:04;;;;;;;;;;;7.80;99.90;;;;;;8386696;28;20015;-73
2022/02/06 14:16:09;;;;;;;;;;;7.80;99.90;;;;;;8372167;28;19920;-73
2022/02/06 14:20:12;;;;;;;;;;;7.90;99.90;;;;;;8378643;28;19920;-73
2022/02/06 14:24:14;;;;;;;;;;;8.00;99.90;;;;;;8386253;28;19974;-73
2022/02/06 14:28:24;;;;;;;;;;;8.20;99.90;;;;;;8376637;28;19944;-73
2022/02/06 14:32:26;;;;;;;;;;;8.30;99.90;;;;;;8385932;28;20276;-73
2022/02/06 14:36:27;;;;;;;;;;;8.40;99.90;;;;;;8381725;28;20378;-73
2022/02/06 14:40:40;;;;;;;;;;;8.50;99.90;;;;;;8383033;28;19926;-73
2022/02/06 14:44:41;;;;;;;;;;;8.60;99.90;;;;;;8386910;28;20343;-73
2022/02/06 14:48:44;;;;;;;;;;;8.60;99.90;;;;;;8369588;28;20326;-73
2022/02/06 14:52:51;;;;;;;;;;;9.00;99.90;;;;;;8389892;28;19928;-73
2022/02/06 14:56:53;;;;;;;;;;;9.90;99.90;;;;;;8365419;28;20351;-73
2022/02/06 15:00:54;;;;;;;;;;;10.50;99.90;;;;;;8361968;28;19924;-73
2022/02/06 15:04:56;;;;;;;;;;;10.40;99.90;;;;;;8390086;28;19924;-73
2022/02/06 15:08:58;;;;;;;;;;;9.90;99.90;;;;;;8390895;28;19983;-73
2022/02/06 15:13:01;;;;;;;;;;;9.60;99.90;;;;;;8374915;28;20233;-74
2022/02/06 15:17:03;;;;;;;;;;;9.40;99.90;;;;;;8397138;28;20220;-73
2022/02/06 15:21:06;;;;;;;;;;;9.20;99.90;;;;;;8378309;28;19927;-73
2022/02/06 15:25:09;;;;;;;;;;;9.00;99.90;;;;;;8394896;28;19928;-73
2022/02/06 15:29:10;;;;;;;;;;;8.90;99.90;;;;;;8376975;28;20378;-73
2022/02/06 15:33:12;;;;;;;;;;;8.70;99.90;;;;;;8379628;28;20414;-73
2022/02/06 15:37:15;;;;;;;;;;;8.70;99.90;;;;;;8389613;28;20407;-73
2022/02/06 15:41:19;;;;;;;;;;;8.60;99.90;;;;;;8391661;28;19971;-73
2022/02/06 15:45:20;;;;;;;;;;;8.60;99.90;;;;;;8364577;28;20027;-73
2022/02/06 15:49:22;;;;;;;;;;;8.60;99.90;;;;;;8391337;28;20398;-73
2022/02/06 15:53:23;;;;;;;;;;;8.50;99.90;;;;;;8386651;28;19966;-73
2022/02/06 15:57:26;;;;;;;;;;;8.50;99.90;;;;;;8353110;28;19932;-73
2022/02/06 16:01:27;;;;;;;;;;;8.40;99.90;;;;;;8360654;28;20012;-73
2022/02/06 16:05:29;;;;;;;;;;;8.40;99.90;;;;;;8362533;28;19946;-73
2022/02/06 16:09:31;;;;;;;;;;;8.40;99.90;;;;;;8366253;28;19925;-73
2022/02/06 16:13:33;;;;;;;;;;;8.40;99.90;;;;;;8347109;28;19924;-73
2022/02/06 16:17:34;;;;;;;;;;;8.40;99.90;;;;;;8362792;28;20349;-74
2022/02/06 16:21:36;;;;;;;10.52;1.60;;;8.40;99.90;;;;;;8359926;28;19935;-73
2022/02/06 16:25:38;;;;;;;;;;;8.30;99.90;;;;;;8360179;28;20049;-73
2022/02/06 16:29:40;;;;;;;;;;;8.10;99.90;;;;;;8356660;28;20386;-73
2022/02/06 16:33:42;;;;;;;;;;;7.70;99.90;;;;;;8363770;28;20012;-73
2022/02/06 16:37:44;;;;;;;;;;;7.50;99.90;;;;;;8354274;28;20056;-73
2022/02/06 16:41:45;;;;;;;;;;;7.30;99.90;;;;;;8340303;28;20244;-73
2022/02/06 16:45:47;;;;;;;;;;;7.20;99.90;;;;;;8362393;28;20012;-74
2022/02/06 16:49:51;;;;;;;;;;;7.00;99.90;;;;;;8354928;28;19975;-74
2022/02/06 16:53:52;;;;;;;;;;;6.80;99.90;;;;;;8362841;28;19927;-75
2022/02/06 16:57:54;;;;;;;;;;;6.60;99.90;;;;;;8346072;28;20019;-75
2022/02/06 17:01:56;;;;;;;;;;;6.40;99.90;;;;;;8357907;28;20365;-75
2022/02/06 17:05:58;;;;;;;;;;;6.10;99.90;;;;;;8355013;28;19921;-75
2022/02/06 17:10:01;;;;;;;;;;;5.80;99.90;;;;;;8360610;28;20647;-74
2022/02/06 17:14:03;;;;;;;;;;;5.60;99.90;;;;;;8360394;28;22322;-75
2022/02/06 17:18:05;;;;;;;;;;;5.40;99.90;;;;;;8362834;28;20360;-74
2022/02/06 17:22:07;;;;;;;;;;;5.30;99.90;;;;;;8363586;28;20011;-74
2022/02/06 17:26:08;;;;;;;;;;;5.30;99.90;;;;;;8367045;28;20368;-74
2022/02/06 17:30:11;;;;;;;;;;;5.30;99.90;;;;;;8355516;28;19921;-74
2022/02/06 17:34:14;;;;;;;;;;;5.30;99.90;;;;;;8374230;28;19991;-74
2022/02/06 17:38:16;;;;;;;;;;;5.30;99.90;;;;;;8365447;28;19971;-74
2022/02/06 17:42:22;;;;;;;;;;;5.40;99.90;;;;;;8353592;28;20222;-74
2022/02/06 17:46:24;;;;;;;;;;;5.50;99.90;;;;;;8358837;28;19968;-74
2022/02/06 17:50:31;;;;;;;;;;;5.60;99.90;;;;;;8357178;28;19924;-74
2022/02/06 17:54:33;;;;;;;;;;;5.50;99.90;;;;;;8356709;28;20372;-73
2022/02/06 17:58:34;;;;;;;;;;;5.40;99.90;;;;;;8356709;28;19959;-73
2022/02/06 18:02:38;;;;;;;;;;;5.30;99.90;;;;;;8361595;28;19924;-74
2022/02/06 18:06:39;;;;;;;;;;;5.10;99.90;;;;;;8342144;28;19963;-73
2022/02/06 18:10:41;;;;;;;;;;;5.00;99.90;;;;;;8361167;28;19971;-74
2022/02/06 18:14:43;;;;;;;;;;;4.90;99.90;;;;;;8371483;28;20308;-73
2022/02/06 18:18:45;;;;;;;;;;;4.80;99.90;;;;;;8368025;28;20023;-73
2022/02/06 18:22:50;;;;;;;;;;;4.80;99.90;;;;;;8369829;28;19971;-74
2022/02/06 18:26:53;;;;;;;;;;;4.70;99.90;;;;;;8364580;28;19928;-73
2022/02/06 18:30:54;;;;;;;;;;;4.70;99.90;;;;;;8361352;28;20024;-74
2022/02/06 18:34:58;;;;;;;;;;;4.80;99.90;;;;;;8343316;28;20007;-74
2022/02/06 18:38:59;;;;;;;;;;;4.90;99.90;;;;;;8357296;28;19971;-74
2022/02/06 18:43:01;;;;;;;;;;;5.00;99.90;;;;;;8360529;28;20277;-74
2022/02/06 18:47:03;;;;;;;;;;;5.00;99.90;;;;;;8363736;28;20019;-74
2022/02/06 18:51:05;;;;;;;;;;;5.00;99.90;;;;;;8364024;28;20011;-74
2022/02/06 18:55:09;;;;;;;;;;;5.10;99.90;;;;;;8365922;28;19920;-75
2022/02/06 18:59:16;;;;;;;;;;;5.10;99.90;;;;;;8360038;28;19928;-74
2022/02/06 19:03:17;;;;;;;;;;;5.20;99.90;;;;;;8368266;28;20015;-74
2022/02/06 19:07:21;;;;;;;;;;;5.20;99.90;;;;;;8353559;28;19920;-74
2022/02/06 19:11:26;;;;;;;;;;;5.30;99.90;;;;;;8361056;28;20067;-74
2022/02/06 19:15:28;;;;;;;;;;;5.30;99.90;;;;;;8368095;28;20820;-74
2022/02/06 19:19:29;;;;;;;;;;;5.30;99.90;;;;;;8366535;28;19929;-74
2022/02/06 19:23:31;;;;;;;;;;;5.40;99.90;;;;;;8363960;28;20273;-72
2022/02/06 19:27:33;;;;;;;;;;;5.40;99.90;;;;;;8372716;28;19924;-74
2022/02/06 19:31:36;;;;;;;;;;;5.40;99.90;;;;;;8367973;28;19921;-75
2022/02/06 19:35:41;;;;;;;;;;;5.50;99.90;;;;;;8366320;28;19932;-74
2022/02/06 19:39:44;;;;;;;;;;;5.50;99.90;;;;;;8363556;28;19964;-74
2022/02/06 19:43:46;;;;;;;;;;;5.50;99.90;;;;;;8351088;28;20022;-74
2022/02/06 19:47:48;;;;;;;;;;;5.50;99.90;;;;;;8343227;28;19921;-73
2022/02/06 19:51:52;;;;;;;;;;;5.60;99.90;;;;;;8347721;28;19972;-74
2022/02/06 19:55:54;;;;;;;;;;;5.60;99.90;;;;;;8358387;28;19921;-74
2022/02/06 19:59:56;;;;;;;;;;;5.60;99.90;;;;;;8345764;28;19929;-75
2022/02/06 20:03:57;;;;;;;;;;;5.60;99.90;;;;;;8367892;28;20027;-74
2022/02/06 20:07:59;;;;;;;;;;;5.60;99.90;;;;;;8374395;28;19920;-74
2022/02/06 20:12:00;;;;;;;;;;;5.60;99.90;;;;;;8360150;28;20031;-74
2022/02/06 20:16:03;;;;;;;;;;;5.50;99.90;;;;;;8360246;28;20103;-74
2022/02/06 20:20:06;;;;;;;;;;;5.50;99.90;;;;;;8362014;28;19921;-74
2022/02/06 20:24:08;;;;;;;;;;;5.50;99.90;;;;;;8345953;28;19928;-74
2022/02/06 20:28:09;;;;;;;;;;;5.50;99.90;;;;;;8360533;28;19921;-74
2022/02/06 20:32:12;;;;;;;;;;;5.50;99.90;;;;;;8363538;28;20384;-74
2022/02/06 20:36:14;;;;;;;;;;;5.50;99.90;;;;;;8344229;28;19971;-74
2022/02/06 20:40:15;;;;;;;;;;;5.50;99.90;;;;;;8363211;28;19928;-74
2022/02/06 20:44:17;;;;;;;;;;;5.50;99.90;;;;;;8364228;28;19966;-74
2022/02/06 20:48:18;;;;;;;;;;;5.50;99.90;;;;;;8362552;28;20370;-74
2022/02/06 20:52:20;;;;;;;;;;;5.50;99.90;;;;;;8364074;28;20012;-75
2022/02/06 20:56:22;;;;;;;;;;;5.40;99.90;;;;;;8361214;28;19924;-74
2022/02/06 21:00:24;;;;;;;;;;;5.40;99.90;;;;;;8360493;28;19936;-75
2022/02/06 21:04:25;;;;;;;;;;;5.40;99.90;;;;;;8360847;28;19935;-75
2022/02/06 21:08:27;;;;;;;;;;;5.40;99.90;;;;;;8360844;28;20450;-74
2022/02/06 21:12:33;;;;;;;;;;;5.40;99.90;;;;;;8350920;28;20387;-74
2022/02/06 21:16:35;;;;;;;;;;;5.50;99.90;;;;;;8362632;28;20011;-75
2022/02/06 21:20:36;;;;;;;;;;;5.50;99.90;;;;;;8362638;28;20027;-74
2022/02/06 21:24:38;;;;;;;;;;;5.50;99.90;;;;;;8343773;28;19958;-74
2022/02/06 21:28:41;;;;;;;;;;;5.60;99.90;;;;;;8358375;28;19934;-74
2022/02/06 21:32:42;;;;;;;;;;;5.60;99.90;;;;;;8367564;28;20632;-74
2022/02/06 21:36:44;;;;;;;;;;;5.60;99.90;;;;;;8372259;28;19927;-74
2022/02/06 21:40:46;;;;;;;;;;;5.70;99.90;;;;;;8372658;28;20423;-74
2022/02/06 21:44:48;;;;;;;;;;;5.70;99.90;;;;;;8361617;28;19924;-74
2022/02/06 21:48:49;;;;;;;;;;;5.70;99.90;;;;;;8358220;28;20300;-74
2022/02/06 21:52:51;;;;;;;;;;;5.70;99.90;;;;;;8359078;28;20019;-74
2022/02/06 21:56:53;;;;;;;;;;;5.70;99.90;;;;;;8359550;28;20290;-74
2022/02/06 22:00:54;;;;;;;;;;;5.70;99.90;;;;;;8364669;28;19955;-74
2022/02/06 22:04:56;;;;;;;;;;;5.70;99.90;;;;;;8365166;28;20915;-74
2022/02/06 22:09:05;;;;;;;;;;;5.60;99.90;;;;;;8371302;28;20012;-74
2022/02/06 22:22:50;;;;;;;;;;;5.50;99.90;;;;;;8397075;28;21431;-74
2022/02/06 22:30:28;;;;;;;;;;;5.40;99.90;;;;;;8390223;28;20190;-74
2022/02/06 22:34:30;;;;;;;;;;;5.30;99.90;;;;;;8402027;28;20404;-74
2022/02/06 22:38:31;;;;;;;;;;;5.30;99.90;;;;;;8385410;28;20317;-74
2022/02/06 22:42:33;;;;;;;;;;;5.30;99.90;;;;;;8392658;28;19928;-74
2022/02/06 22:46:35;;;;;;;;;;;5.30;99.90;;;;;;8375896;28;19927;-74
2022/02/06 22:50:37;;;;;;;;;;;5.30;99.90;;;;;;8372629;28;20325;-74
2022/02/06 22:54:39;;;;;;;;;;;5.10;99.90;;;;;;8388482;28;20003;-74
2022/02/06 22:58:41;;;;;;;;;;;4.90;99.90;;;;;;8391297;28;19966;-74
2022/02/06 23:02:42;;;;;;;;;;;4.90;99.90;;;;;;8366588;28;20010;-74
2022/02/06 23:06:44;;;;;;;;;;;4.90;99.90;;;;;;8395811;28;20369;-74
2022/02/06 23:10:47;;;;;;;;;;;4.90;99.90;;;;;;8391953;28;20038;-74
2022/02/06 23:14:49;;;;;;;;;;;4.90;99.90;;;;;;8394940;28;19920;-74
2022/02/06 23:18:50;;;;;;;;;;;4.90;99.90;;;;;;8392743;28;19921;-74
2022/02/06 23:22:55;;;;;;;;;;;5.00;99.90;;;;;;8385793;28;19924;-74
2022/02/06 23:26:57;;;;;;;;;;;5.00;99.90;;;;;;8390417;28;19924;-74
2022/02/06 23:30:59;;;;;;;;;;;5.00;99.90;;;;;;8392858;28;19998;-74
2022/02/06 23:35:00;;;;;;;;;;;5.10;99.90;;;;;;8385018;28;19982;-74
2022/02/06 23:39:02;;;;;;;;;;;5.10;99.90;;;;;;8390073;28;20428;-74
2022/02/06 23:43:04;;;;;;;;;;;5.10;99.90;;;;;;8386401;28;20288;-74
2022/02/06 23:47:11;;;;;;;;;;;5.20;99.90;;;;;;8386995;28;19927;-74
2022/02/06 23:51:24;;;;;;;;;;;5.20;99.90;;;;;;8392659;28;19960;-74
2022/02/06 23:55:29;;;;;;;;;;;5.30;99.90;;;;;;8387324;28;19920;-74
